Time;durP1;ratioP1;P1;durP2;ratioP2;P2;SDS_P1;SDS_P2;PMS_P1;PMS_P2;Temp;Humidity;BMP_temperature;BMP_pressure;BME280_temperature;BME280_humidity;BME280_pressure;Samples;Min_cycle;Max_cycle;Signal;HPM_P1;HPM_P2
2022/01/25 00:28:46;;;;;;;15.48;5.70;;;;;;;;;;6286014;22;20023;-91
2022/01/25 00:36:46;;;;;;;16.65;7.43;;;;;;;;;;6292371;22;20977;-94
2022/01/25 00:39:14;;;;;;;31.50;6.63;;;;;;;;;;6317477;22;20019;-93
2022/01/25 00:41:41;;;;;;;9.75;6.80;;;;;;;;;;6294498;22;20003;-92
2022/01/25 00:44:11;;;;;;;13.23;5.57;;;;;;;;;;6331186;22;20063;-92
2022/01/25 02:06:12;;;;;;;15.02;5.65;;;;;;;;;;6287946;22;20029;-92
2022/01/25 02:11:22;;;;;;;19.52;6.85;;;;;;;;;;6288072;22;20030;-95
2022/01/25 02:13:48;;;;;;;18.23;9.57;;;;;;;;;;6297274;22;20037;-93
2022/01/25 08:40:34;;;;;;;24.10;10.32;;;;;;;;;;6306587;22;20050;-96
2022/01/25 08:43:01;;;;;;;25.95;11.68;;;;;;;;;;6335730;22;19998;-96
2022/01/25 08:45:27;;;;;;;29.65;9.45;;;;;;;;;;6311250;22;20722;-96
2022/01/25 08:47:53;;;;;;;18.10;9.48;;;;;;;;;;6310398;22;20024;-95
2022/01/25 08:50:19;;;;;;;17.83;9.68;;;;;;;;;;6309677;22;20105;-93
2022/01/25 08:52:45;;;;;;;33.30;10.95;;;;;;;;;;6336817;22;20014;-93
2022/01/25 08:55:11;;;;;;;74.93;28.38;;;;;;;;;;6309102;22;20330;-92
2022/01/25 08:57:37;;;;;;;66.05;20.48;;;;;;;;;;6309425;22;20084;-92
2022/01/25 09:00:08;;;;;;;36.65;12.20;;;;;;;;;;6336888;22;20002;-93
2022/01/25 09:02:34;;;;;;;24.60;8.15;;;;;;;;;;6308973;22;20085;-93
2022/01/25 09:05:00;;;;;;;21.05;7.88;;;;;;;;;;6337474;22;20425;-90
2022/01/25 09:07:26;;;;;;;28.38;10.30;;;;;;;;;;6336763;22;20094;-90
2022/01/25 09:09:52;;;;;;;22.83;10.75;;;;;;;;;;6309867;22;20026;-92
2022/01/25 09:12:18;;;;;;;32.13;11.52;;;;;;;;;;6309678;22;20093;-94
2022/01/25 09:14:44;;;;;;;27.25;12.35;;;;;;;;;;6337017;22;20034;-94
2022/01/25 09:17:10;;;;;;;27.75;11.05;;;;;;;;;;6309908;22;20345;-92
2022/01/25 09:19:38;;;;;;;27.30;10.13;;;;;;;;;;6309796;22;20003;-94
2022/01/25 09:22:05;;;;;;;24.77;8.15;;;;;;;;;;6337548;22;20098;-95
2022/01/25 09:24:31;;;;;;;23.67;10.55;;;;;;;;;;6337143;22;20007;-95
2022/01/25 09:26:57;;;;;;;24.83;7.93;;;;;;;;;;6310289;22;19999;-93
2022/01/25 09:29:23;;;;;;;20.15;9.10;;;;;;;;;;6336722;22;20457;-92
2022/01/25 09:31:50;;;;;;;19.67;9.75;;;;;;;;;;6310112;22;20182;-93
2022/01/25 09:34:16;;;;;;;26.45;11.40;;;;;;;;;;6337579;22;20007;-94
2022/01/25 09:36:42;;;;;;;24.90;10.20;;;;;;;;;;6309815;22;20088;-93
2022/01/25 09:39:08;;;;;;;20.23;7.82;;;;;;;;;;6309565;22;20003;-93
2022/01/25 09:41:34;;;;;;;17.90;8.70;;;;;;;;;;6307644;22;20518;-93
2022/01/25 09:44:02;;;;;;;25.70;11.00;;;;;;;;;;6278280;22;20007;-93
2022/01/25 09:46:28;;;;;;;17.33;8.32;;;;;;;;;;6306466;22;20049;-93
2022/01/25 09:48:54;;;;;;;13.60;9.00;;;;;;;;;;6306288;22;20446;-93
2022/01/25 09:51:21;;;;;;;36.10;13.23;;;;;;;;;;6278225;22;20009;-92
2022/01/25 09:53:47;;;;;;;28.48;13.05;;;;;;;;;;6278628;22;20063;-94
2022/01/25 09:56:13;;;;;;;19.45;10.80;;;;;;;;;;6278150;22;20060;-92
2022/01/25 09:58:39;;;;;;;24.33;10.82;;;;;;;;;;6305113;22;20014;-91
2022/01/25 10:01:05;;;;;;;23.27;12.13;;;;;;;;;;6305512;22;19999;-92
2022/01/25 10:03:37;;;;;;;21.00;11.13;;;;;;;;;;6305970;22;20318;-89
2022/01/25 10:06:04;;;;;;;29.05;12.25;;;;;;;;;;6278086;22;20031;-91
2022/01/25 10:08:32;;;;;;;42.22;15.30;;;;;;;;;;6278184;22;20007;-91
2022/01/25 10:11:08;;;;;;;32.90;11.52;;;;;;;;;;6305849;22;20007;-91
2022/01/25 10:13:37;;;;;;;29.77;11.55;;;;;;;;;;6307579;22;20015;-91
2022/01/25 10:16:03;;;;;;;20.75;9.80;;;;;;;;;;6307757;22;20026;-91
2022/01/25 10:18:46;;;;;;;21.27;9.10;;;;;;;;;;6280882;22;20011;-92
2022/01/25 10:21:15;;;;;;;10.93;6.45;;;;;;;;;;6307612;22;20333;-90
2022/01/25 10:23:58;;;;;;;15.70;7.00;;;;;;;;;;6305842;22;20001;-90
2022/01/25 10:26:24;;;;;;;22.33;8.43;;;;;;;;;;6306987;22;20010;-91
2022/01/25 10:28:51;;;;;;;24.83;10.02;;;;;;;;;;6278012;22;20137;-90
2022/01/25 10:31:17;;;;;;;24.03;9.27;;;;;;;;;;6249406;22;20014;-89
2022/01/25 10:33:52;;;;;;;18.67;9.90;;;;;;;;;;6248964;22;20095;-89
2022/01/25 10:36:19;;;;;;;20.67;10.40;;;;;;;;;;6276149;22;20012;-90
2022/01/25 10:38:47;;;;;;;22.95;13.63;;;;;;;;;;6249652;22;20090;-90
2022/01/25 10:41:15;;;;;;;15.98;9.88;;;;;;;;;;6273662;22;20011;-90
2022/01/25 10:43:43;;;;;;;20.40;10.25;;;;;;;;;;6307010;22;20010;-90
2022/01/25 10:46:12;;;;;;;17.77;8.85;;;;;;;;;;6307985;22;20430;-89
2022/01/25 10:48:39;;;;;;;14.63;7.78;;;;;;;;;;6306642;22;20363;-88
2022/01/25 10:51:10;;;;;;;14.32;7.53;;;;;;;;;;6307482;22;20097;-91
2022/01/25 10:53:37;;;;;;;17.48;9.13;;;;;;;;;;6307102;22;20011;-91
2022/01/25 10:56:03;;;;;;;19.58;6.47;;;;;;;;;;6306303;22;20007;-89
2022/01/25 10:58:30;;;;;;;18.45;7.25;;;;;;;;;;6279697;22;19999;-91
2022/01/25 11:00:58;;;;;;;17.08;6.53;;;;;;;;;;6307695;22;20003;-91
2022/01/25 11:03:32;;;;;;;15.40;7.20;;;;;;;;;;6280017;22;20011;-89
2022/01/25 11:06:07;;;;;;;12.15;7.75;;;;;;;;;;6307075;22;21133;-90
2022/01/25 11:08:36;;;;;;;21.27;7.90;;;;;;;;;;6307358;22;20571;-90
2022/01/25 11:11:03;;;;;;;20.75;8.35;;;;;;;;;;6278818;22;20056;-89
2022/01/25 11:15:59;;;;;;;18.38;8.77;;;;;;;;;;6307300;22;20509;-91
2022/01/25 11:18:26;;;;;;;19.90;9.27;;;;;;;;;;6280386;22;20007;-91
2022/01/25 11:20:52;;;;;;;13.73;8.70;;;;;;;;;;6314537;22;20067;-90
2022/01/25 11:23:18;;;;;;;16.90;8.65;;;;;;;;;;6280444;22;20007;-90
2022/01/25 11:25:45;;;;;;;23.73;9.23;;;;;;;;;;6278890;22;20007;-89
2022/01/25 11:28:12;;;;;;;23.97;7.97;;;;;;;;;;6278805;22;20011;-90
2022/01/25 11:30:40;;;;;;;16.30;8.73;;;;;;;;;;6279133;22;20230;-90
2022/01/25 11:33:07;;;;;;;16.05;8.82;;;;;;;;;;6306080;22;20438;-90
2022/01/25 11:35:34;;;;;;;13.45;7.03;;;;;;;;;;6306450;22;20006;-91
2022/01/25 11:38:00;;;;;;;14.50;7.97;;;;;;;;;;6305629;22;20464;-89
2022/01/25 11:40:35;;;;;;;14.07;8.15;;;;;;;;;;6278636;22;20019;-89
2022/01/25 11:43:06;;;;;;;10.18;7.05;;;;;;;;;;6305833;22;20007;-90
2022/01/25 11:45:34;;;;;;;11.07;7.15;;;;;;;;;;6305723;22;20003;-89
2022/01/25 11:48:01;;;;;;;13.77;6.82;;;;;;;;;;6278955;22;20007;-90
2022/01/25 11:50:28;;;;;;;16.20;6.78;;;;;;;;;;6278797;22;20000;-89
2022/01/25 11:52:56;;;;;;;13.90;5.68;;;;;;;;;;6305651;22;20015;-89
2022/01/25 11:55:26;;;;;;;11.40;5.38;;;;;;;;;;6305907;22;20003;-89
2022/01/25 11:58:04;;;;;;;8.95;5.05;;;;;;;;;;6306182;22;20007;-90
2022/01/25 12:00:44;;;;;;;7.10;4.72;;;;;;;;;;6306121;22;20003;-90
2022/01/25 12:03:25;;;;;;;8.45;4.95;;;;;;;;;;6305847;22;20010;-90
2022/01/25 12:05:56;;;;;;;15.25;6.22;;;;;;;;;;6278398;22;20007;-89
2022/01/25 12:08:28;;;;;;;13.13;5.90;;;;;;;;;;6305977;22;20084;-90
2022/01/25 12:11:05;;;;;;;12.35;5.43;;;;;;;;;;6306160;22;20007;-90
2022/01/25 12:13:31;;;;;;;9.93;5.35;;;;;;;;;;6305480;22;20015;-91
2022/01/25 12:16:16;;;;;;;13.82;5.32;;;;;;;;;;6278834;22;20004;-89
2022/01/25 12:19:03;;;;;;;16.30;6.60;;;;;;;;;;6279214;22;20068;-90
2022/01/25 12:21:54;;;;;;;16.15;8.02;;;;;;;;;;6306589;22;20463;-90
2022/01/25 12:24:24;;;;;;;18.73;7.30;;;;;;;;;;6306182;22;20509;-92
2022/01/25 12:27:00;;;;;;;20.05;7.75;;;;;;;;;;6279431;22;20031;-89
2022/01/25 12:29:46;;;;;;;21.45;8.98;;;;;;;;;;6306534;22;20007;-89
2022/01/25 12:32:33;;;;;;;18.70;8.65;;;12.10;63.90;;;;;;6278915;22;20011;-91
2022/01/25 12:34:59;;;;;;;22.55;8.75;;;;;;;;;;6305855;22;20000;-90
2022/01/25 12:37:44;;;;;;;20.05;9.77;;;;;;;;;;6306439;22;20031;-89
2022/01/25 12:40:25;;;;;;;25.80;9.77;;;;;;;;;;6306145;22;20034;-91
2022/01/25 12:43:11;;;;;;;21.00;8.27;;;;;;;;;;6306323;22;20087;-90
2022/01/25 12:45:43;;;;;;;19.75;9.25;;;;;;;;;;6306439;22;19999;-90
2022/01/25 12:48:10;;;;;;;23.40;7.00;;;;;;;;;;6306325;22;20007;-89
2022/01/25 12:50:41;;;;;;;19.15;8.25;;;;;;;;;;6277530;22;19999;-89
2022/01/25 12:53:08;;;;;;;12.68;6.47;;;;;;;;;;6304764;22;20091;-89
2022/01/25 12:55:37;;;;;;;17.63;6.78;;;;;;;;;;6277612;22;20434;-90
2022/01/25 12:58:04;;;;;;;20.10;8.00;;;;;;;;;;6304964;22;20003;-90
2022/01/25 13:00:35;;;;;;;18.73;7.45;;;;;;;;;;6304910;22;19999;-89
2022/01/25 13:03:21;;;;;;;15.75;9.98;;;;;;;;;;6304910;22;20007;-91
2022/01/25 13:05:47;;;;;;;16.53;8.97;;;;;;;;;;6277348;22;20561;-89
2022/01/25 13:08:17;;;;;;;23.52;9.07;;;;;;;;;;6277323;22;20014;-88
2022/01/25 13:10:43;;;;;;;23.55;9.85;;;;;;;;;;6303374;22;20014;-89
2022/01/25 13:13:21;;;;;;;20.15;9.43;;;;;;;;;;6303165;22;20446;-88
2022/01/25 13:18:14;;;;;;;20.38;10.88;;;;;;;;;;6303120;22;20061;-90
2022/01/25 13:20:42;;;;;;;20.23;8.50;;;;;;;;;;6275712;22;20025;-89
2022/01/25 13:23:08;;;;;;;21.85;9.48;;;;;;;;;;6304711;22;20007;-91
2022/01/25 13:31:12;;;;;;;28.02;10.40;;;;;;;;;;6304429;22;20014;-90
2022/01/25 13:33:38;;;;;;;24.83;10.20;;;;;;;;;;6276514;22;20069;-90
2022/01/25 13:36:07;;;;;;;23.08;10.60;;;;;;;;;;6304357;22;20106;-89
2022/01/25 13:38:36;;;;;;;21.27;10.95;;;;;;;;;;6304268;22;20048;-89
2022/01/25 13:46:22;;;;;;;20.42;10.63;;;;;;;;;;6305519;22;20015;-91
2022/01/25 13:48:50;;;;;;;26.48;11.82;;;;;;;;;;6279035;22;20006;-91
2022/01/25 13:51:18;;;;;;;22.30;11.00;;;;;;;;;;6306826;22;20011;-90
2022/01/25 13:53:49;;;;;;;21.88;10.02;;;;;;;;;;6280021;22;20011;-91
2022/01/25 13:56:16;;;;;;;23.05;11.13;;;;;;;;;;6306685;22;20046;-90
2022/01/25 13:58:44;;;;;;;28.17;15.10;;;;;;;;;;6280080;22;20003;-92
2022/01/25 14:01:10;;;;;;;34.55;12.55;;;;;;;;;;6278810;22;20010;-91
2022/01/25 14:03:38;;;;;;;27.10;12.53;;;;;;;;;;6305592;22;20378;-90
2022/01/25 14:06:20;;;;;;;37.50;15.73;;;;;;;;;;6279493;22;20003;-89
2022/01/25 14:08:46;;;;;;;32.15;13.65;;;;;;;;;;6307093;22;20029;-91
2022/01/25 14:11:24;;;;;;;31.02;14.60;;;;;;;;;;6306630;22;19999;-91
2022/01/25 14:24:53;;;;;;;30.73;12.40;;;;;;;;;;6306263;22;20017;-91
2022/01/25 14:27:20;;;;;;;39.00;15.43;;;;;;;;;;6279430;22;20058;-91
2022/01/25 14:29:46;;;;;;;44.50;17.27;;;;;;;;;;6307078;22;20052;-89
2022/01/25 14:32:12;;;;;;;33.35;16.30;;;;;;;;;;6278163;22;20039;-88
2022/01/25 14:34:38;;;;;;;40.80;15.10;;;;;;;;;;6279554;22;20011;-90
2022/01/25 14:37:13;;;;;;;34.70;14.63;;;;;;;;;;6279849;22;20003;-91
2022/01/25 14:39:43;;;;;;;33.58;17.60;;;;;;;;;;6279629;22;20012;-92
2022/01/25 14:42:10;;;;;;;30.52;14.40;;;;;;;;;;6279982;22;19999;-89
2022/01/25 14:44:41;;;;;;;36.28;14.20;;;;;;;;;;6306968;22;20007;-90
2022/01/25 14:47:12;;;;;;;29.63;13.65;;;;;;;;;;6279440;22;20086;-91
2022/01/25 14:49:45;;;;;;;26.88;13.98;;;;;;;;;;6278920;22;20018;-90
2022/01/25 14:52:11;;;;;;;32.50;15.65;;;;;;;;;;6278717;22;20011;-90
2022/01/25 14:54:40;;;;;;;29.13;13.63;;;;;;;;;;6305711;22;20114;-91
2022/01/25 14:57:10;;;;;;;29.58;14.90;;;;;;;;;;6278985;22;20082;-91
2022/01/25 14:59:38;;;;;;;31.77;15.50;;;;;;;;;;6306756;22;20003;-91
2022/01/25 15:02:21;;;;;;;47.97;17.88;;;;;;;;;;6279458;22;20007;-91
2022/01/25 15:04:50;;;;;;;34.58;14.45;;;;;;;;;;6306155;22;19999;-90
2022/01/25 15:07:20;;;;;;;37.13;15.45;;;;;;;;;;6279331;22;20011;-91
2022/01/25 15:10:05;;;;;;;53.22;19.70;;;;;;;;;;6306743;22;20438;-93
2022/01/25 15:12:38;;;;;;;46.28;17.98;;;;;;;;;;6306673;22;20067;-91
2022/01/25 15:15:10;;;;;;;33.83;14.93;;;;;;;;;;6307470;22;20010;-90
2022/01/25 15:17:36;;;;;;;44.60;15.15;;;;;;;;;;6306844;22;20007;-92
2022/01/25 15:20:03;;;;;;;27.23;15.50;;;;;;;;;;6279853;22;19999;-93
2022/01/25 15:22:29;;;;;;;36.63;16.63;;;;;;;;;;6279899;22;20007;-91
2022/01/25 15:24:57;;;;;;;42.95;16.83;;;;;;;;;;6306382;22;20007;-91
2022/01/25 15:27:27;;;;;;;39.25;16.95;;;;;;;;;;6306578;22;20513;-91
2022/01/25 15:29:54;;;;;;;41.83;16.88;;;;;;;;;;6306363;22;20006;-92
2022/01/25 15:32:20;;;;;;;41.78;16.98;;;;;;;;;;6305914;22;20008;-90
2022/01/25 15:34:46;;;;;;;33.78;16.88;;;;;;;;;;6306667;22;20041;-92
2022/01/25 15:37:13;;;;;;;37.47;15.18;;;;;;;;;;6307462;22;20083;-91
2022/01/25 15:39:39;;;;;;;29.20;14.25;;;;;;;;;;6279952;22;20019;-93
2022/01/25 15:42:06;;;;;;;37.03;17.88;;;;;;;;;;6279740;22;20086;-90
2022/01/25 15:44:39;;;;;;;46.28;17.77;;;;;;;;;;6279827;22;20004;-92
2022/01/25 15:47:08;;;;;;;29.23;13.25;;;;;;;;;;6279087;22;19999;-90
2022/01/25 15:49:34;;;;;;;32.55;14.23;;;;;;;;;;6306586;22;20011;-91
2022/01/25 15:52:00;;;;;;;33.35;13.90;;;;;;;;;;6306673;22;20452;-92
2022/01/25 15:54:26;;;;;;;37.88;16.92;;;;;;;;;;6306074;22;20007;-91
2022/01/25 15:56:53;;;;;;;41.10;15.60;;;;;;;;;;6307354;22;20004;-92
2022/01/25 15:59:21;;;;;;;34.85;15.10;;;;;;;;;;6278754;22;20665;-93
2022/01/25 16:01:51;;;;;;;30.60;13.15;;;;;;;;;;6279420;22;20086;-91
2022/01/25 16:04:17;;;;;;;28.33;15.32;;;;;;;;;;6306334;22;19999;-90
2022/01/25 16:06:43;;;;;;;26.02;13.48;;;;;;;;;;6306651;22;19999;-93
2022/01/25 16:09:09;;;;;;;40.13;16.20;;;;;;;;;;6305441;22;20315;-91
2022/01/25 16:11:36;;;;;;;35.10;15.13;;;;;;;;;;6306607;22;20079;-89
2022/01/25 16:14:02;;;;;;;30.52;15.38;;;;;;;;;;6306214;22;20003;-92
2022/01/25 16:16:28;;;;;;;30.85;13.52;;;;;;;;;;6305173;22;20524;-91
2022/01/25 16:18:54;;;;;;;29.52;13.32;;;;;;;;;;6306020;22;20003;-90
2022/01/25 16:21:21;;;;;;;30.27;14.13;;;;;;;;;;6305454;22;20076;-92
2022/01/25 16:23:47;;;;;;;34.90;15.32;;;;;;;;;;6279311;22;20007;-92
2022/01/25 16:26:13;;;;;;;15.98;9.85;;;;;;;;;;6306331;22;20010;-90
2022/01/25 16:28:40;;;;;;;16.58;9.90;;;;;;;;;;6306290;22;20007;-91
2022/01/25 16:31:16;;;;;;;25.55;11.07;;;;;;;;;;6305696;22;20007;-92
2022/01/25 16:33:43;;;;;;;34.47;12.80;;;;;;;;;;6306636;22;20019;-93
2022/01/25 16:36:09;;;;;;;34.28;14.68;;;;;;;;;;6278863;22;20010;-91
2022/01/25 16:38:36;;;;;;;21.15;11.25;;;;;;;;;;6278885;22;19999;-92
2022/01/25 16:41:02;;;;;;;30.15;12.35;;;;;;;;;;6305630;22;20033;-92
2022/01/25 16:43:28;;;;;;;25.10;10.93;;;;;;;;;;6278720;22;20015;-92
2022/01/25 16:45:57;;;;;;;25.10;8.73;;;;;;;;;;6306137;22;20000;-93
2022/01/25 16:48:23;;;;;;;28.40;9.90;;;;;;;;;;6306018;22;20007;-91
2022/01/25 16:50:49;;;;;;;40.83;14.45;;;;;;;;;;6279357;22;20000;-92
2022/01/25 16:53:15;;;;;;;29.40;12.63;;;;;;;;;;6278458;22;20014;-91
2022/01/25 16:55:41;;;;;;;33.20;14.73;;;;;;;;;;6278397;22;20003;-93
2022/01/25 16:58:07;;;;;;;19.38;9.98;;;;;;;;;;6305485;22;20016;-92
2022/01/25 17:00:36;;;;;;;14.52;8.38;;;;;;;;;;6278281;22;19999;-93
2022/01/25 17:03:02;;;;;;;21.15;8.50;;;;;;;;;;6306065;22;20006;-93
2022/01/25 17:05:29;;;;;;;25.15;10.05;;;;;;;;;;6305631;22;19999;-91
2022/01/25 17:07:55;;;;;;;15.75;7.43;;;;;;;;;;6278560;22;20004;-92
2022/01/25 17:10:22;;;;;;;14.85;6.88;;;;;;;;;;6278260;22;19995;-92
2022/01/25 17:12:48;;;;;;;14.02;4.88;;;;;;;;;;6304313;22;20061;-94
2022/01/25 17:15:14;;;;;;;6.63;4.32;;;;;;;;;;6305150;22;20010;-95
2022/01/25 17:17:40;;;;;;;7.88;4.78;;;;;;;;;;6279170;22;19999;-92
2022/01/25 17:20:07;;;;;;;10.63;4.88;;;;;;;;;;6305629;22;20014;-94
2022/01/25 17:22:33;;;;;;;14.80;5.25;;;;;;;;;;6278570;22;20462;-93
2022/01/25 17:24:59;;;;;;;17.02;7.70;;;;;;;;;;6278529;22;20088;-92
2022/01/25 17:27:25;;;;;;;18.35;7.50;;;;;;;;;;6306074;22;20002;-94
2022/01/25 17:29:51;;;;;;;12.73;5.75;;;;;;;;;;6305959;22;20003;-93
2022/01/25 17:32:18;;;;;;;12.82;3.45;;;;;;;;;;6278069;22;20464;-92
2022/01/25 17:34:44;;;;;;;9.75;4.13;;;;;;;;;;6305628;22;20027;-93
2022/01/25 17:37:10;;;;;;;6.78;3.15;;;;;;;;;;6278230;22;20003;-93
2022/01/25 17:39:36;;;;;;;12.60;4.13;;;;;;;;;;6305338;22;20007;-92
2022/01/25 17:42:02;;;;;;;8.88;4.28;;;;;;;;;;6305929;22;20460;-94
2022/01/25 17:44:28;;;;;;;9.00;3.33;;;;;;;;;;6305652;22;20865;-94
2022/01/25 17:46:54;;;;;;;9.65;4.45;;;;;;;;;;6306153;22;20075;-95
2022/01/25 17:49:20;;;;;;;9.23;4.32;;;;;;;;;;6277965;22;20026;-93
2022/01/25 17:51:46;;;;;;;14.50;5.60;;;;;;;;;;6305879;22;20000;-93
2022/01/25 17:54:13;;;;;;;26.88;9.77;;;;;;;;;;6305880;22;20003;-96
2022/01/25 17:56:39;;;;;;;12.95;7.80;;;;;;;;;;6305553;22;19999;-93
2022/01/25 17:59:06;;;;;;;21.67;8.70;;;;;;;;;;6306082;22;20180;-93
2022/01/25 18:01:32;;;;;;;23.00;10.70;;;;;;;;;;6305946;22;19999;-93
2022/01/25 18:03:59;;;;;;;23.00;9.75;;;;;;;;;;6305620;22;19999;-94
2022/01/25 18:06:25;;;;;;;17.05;8.90;;;;;;;;;;6278041;22;20013;-93
2022/01/25 18:08:51;;;;;;;18.60;8.02;;;;;;;;;;6305101;22;20031;-94
2022/01/25 18:11:17;;;;;;;11.60;5.35;;;;;;;;;;6304481;22;20011;-93
2022/01/25 18:13:43;;;;;;;11.23;4.45;;;;;;;;;;6278226;22;20019;-94
2022/01/25 18:16:09;;;;;;;15.82;7.30;;;;;;;;;;6304844;22;20007;-94
2022/01/25 18:18:35;;;;;;;12.65;5.45;;;;;;;;;;6278146;22;20007;-95
2022/01/25 18:21:04;;;;;;;20.30;7.85;;;;;;;;;;6305448;22;20007;-94
2022/01/25 18:23:40;;;;;;;26.05;9.82;;;;;;;;;;6304060;22;20052;-93
2022/01/25 18:26:19;;;;;;;65.40;18.48;;;;;;;;;;6277128;22;20454;-94
2022/01/25 18:28:46;;;;;;;29.70;11.45;;;;;;;;;;6304256;22;20082;-94
2022/01/25 18:31:12;;;;;;;19.25;10.10;;;;;;;;;;6277337;22;20434;-93
2022/01/25 18:33:38;;;;;;;25.83;11.65;;;;;;;;;;6305687;22;20030;-93
2022/01/25 18:36:04;;;;;;;17.00;6.53;;;;;;;;;;6281555;22;20078;-95
2022/01/25 18:38:31;;;;;;;11.90;6.57;;;;;;;;;;6308669;22;20347;-94
2022/01/25 18:40:58;;;;;;;13.38;7.13;;;;;;;;;;6307151;22;20095;-94
2022/01/25 18:43:24;;;;;;;14.13;5.30;;;;;;;;;;6307333;22;20486;-95
2022/01/25 18:45:52;;;;;;;9.48;5.25;;;;;;;;;;6279232;22;20014;-95
2022/01/25 18:48:19;;;;;;;4.40;3.15;;;;;;;;;;6307018;22;20111;-95
2022/01/25 18:50:47;;;;;;;6.47;3.63;;;;;;;;;;6306127;22;20006;-94
2022/01/25 18:53:14;;;;;;;5.50;3.05;;;;;;;;;;6278544;22;20011;-94
2022/01/25 18:55:40;;;;;;;9.48;4.68;;;;;;;;;;6279552;22;20004;-95
2022/01/25 18:58:06;;;;;;;18.13;6.20;;;;;;;;;;6279376;22;19999;-94
2022/01/25 19:00:32;;;;;;;16.45;9.10;;;;;;;;;;6306848;22;20000;-95
2022/01/25 19:02:59;;;;;;;10.50;4.97;;;;;;;;;;6279059;22;20007;-93
2022/01/25 19:05:25;;;;;;;14.50;7.35;;;;;;;;;;6279811;22;20003;-95
2022/01/25 19:07:51;;;;;;;17.23;6.75;;;;;;;;;;6307314;22;20015;-94
2022/01/25 19:10:19;;;;;;;11.82;6.40;;;;;;;;;;6280254;22;20003;-93
2022/01/25 19:12:45;;;;;;;13.02;6.38;;;;;;;;;;6307538;22;20461;-93
2022/01/25 19:15:11;;;;;;;16.52;6.40;;;;;;;;;;6307416;22;19999;-92
2022/01/25 19:17:38;;;;;;;14.13;6.38;;;;;;;;;;6308036;22;20078;-93
2022/01/25 19:20:05;;;;;;;16.15;6.53;;;;;;;;;;6280769;22;19992;-93
2022/01/25 19:22:33;;;;;;;14.93;6.05;;;;;;;;;;6280323;22;20433;-94
2022/01/25 19:25:00;;;;;;;12.43;6.43;;;;;;;;;;6307589;22;20008;-94
2022/01/25 19:27:27;;;;;;;3.30;2.63;;;;;;;;;;6280114;22;20011;-92
2022/01/25 19:29:55;;;;;;;12.63;3.45;;;;;;;;;;6280571;22;20035;-95
2022/01/25 19:32:24;;;;;;;5.05;2.97;;;;;;;;;;6307208;22;20011;-93
2022/01/25 19:34:56;;;;;;;15.27;5.70;;;;;;;;;;6307298;22;19999;-93
2022/01/25 19:40:10;;;;;;;24.48;9.80;;;;;;;;;;6303914;22;20049;-94
2022/01/25 19:43:18;;;;;;;10.38;6.32;;;3.70;84.70;;;;;;6279886;22;20315;-94
2022/01/25 19:45:47;;;;;;;8.13;3.97;;;;;;;;;;6282964;22;20013;-93
2022/01/25 19:48:13;;;;;;;9.20;3.28;;;;;;;;;;6308130;22;20380;-93
2022/01/25 19:53:25;;;;;;;7.47;3.28;;;;;;;;;;6307917;22;20054;-94
2022/01/25 19:55:59;;;;;;;;;;;3.90;82.10;;;;;;6281653;22;20010;-95
2022/01/25 19:58:26;;;;;;;8.63;3.55;;;;;;;;;;6307608;22;19922;-95
2022/01/25 20:00:55;;;;;;;12.82;5.70;;;;;;;;;;6279527;22;20351;-95
2022/01/25 20:03:23;;;;;;;14.85;5.68;;;;;;;;;;6281024;22;19999;-94
2022/01/25 20:05:48;;;;;;;;;;;3.50;85.30;;;;;;6279995;22;21127;-93
2022/01/25 20:08:20;;;;;;;9.82;5.72;;;;;;;;;;6307837;22;19899;-96
2022/01/25 20:13:35;;;;;;;11.15;5.35;;;;;;;;;;6306636;22;20096;-93
2022/01/25 20:21:41;;;;;;;9.55;4.53;;;;;;;;;;6301210;22;20038;-93
2022/01/25 20:30:59;;;;;;;15.48;5.90;;;;;;;;;;6307267;22;20023;-93
2022/01/25 20:33:27;;;;;;;15.82;9.02;;;;;;;;;;6279673;22;20362;-95
2022/01/25 20:35:56;;;;;;;14.50;7.78;;;;;;;;;;6307319;22;20014;-94
2022/01/25 20:38:22;;;;;;;19.35;7.55;;;;;;;;;;6279198;22;20026;-94
2022/01/25 20:40:52;;;;;;;16.77;7.60;;;;;;;;;;6279517;22;20346;-94
2022/01/25 20:43:25;;;;;;;22.08;10.82;;;;;;;;;;6278915;22;20015;-95
2022/01/25 20:45:57;;;;;;;16.27;7.35;;;;;;;;;;6279981;22;20013;-93
2022/01/25 20:48:29;;;;;;;14.95;7.05;;;;;;;;;;6304436;22;20007;-93
2022/01/25 20:51:00;;;;;;;22.95;5.93;;;;;;;;;;6306696;22;20342;-93
2022/01/25 20:53:26;;;;;;;19.35;6.72;;;;;;;;;;6307046;22;20011;-93
2022/01/25 20:55:53;;;;;;;13.07;7.25;;;;;;;;;;6306587;22;20350;-94
2022/01/25 20:58:21;;;;;;;14.33;7.97;;;;;;;;;;6279755;22;20014;-93
2022/01/25 21:00:48;;;;;;;15.73;6.88;;;;;;;;;;6279464;22;20002;-94
2022/01/25 21:03:36;;;;;;;13.23;7.10;;;;;;;;;;6306924;22;20064;-94
2022/01/25 21:12:06;;;;;;;26.58;7.95;;;;;;;;;;6294737;22;20066;-95
2022/01/25 21:14:32;;;;;;;20.20;10.10;;;;;;;;;;6280364;22;20086;-94
2022/01/25 21:17:00;;;;;;;22.65;8.63;;;;;;;;;;6307163;22;20007;-93
2022/01/25 21:19:27;;;;;;;13.68;6.78;;;;;;;;;;6307487;22;20010;-95
2022/01/25 21:21:53;;;;;;;24.20;8.68;;;;;;;;;;6307634;22;20000;-94
2022/01/25 21:24:21;;;;;;;14.18;6.47;;;;;;;;;;6307353;22;20030;-94
2022/01/25 21:29:40;;;;;;;11.57;4.88;;;;;;;;;;6298904;22;20031;-94
2022/01/25 21:32:11;;;;;;;6.72;4.20;;;;;;;;;;6307082;22;20007;-94
2022/01/25 21:40:40;;;;;;;11.75;5.35;;;3.10;89.40;;;;;;6292558;22;20274;-96
2022/01/25 21:43:07;;;;;;;10.63;5.78;;;;;;;;;;6305455;22;20056;-93
2022/01/25 21:45:58;;;;;;;11.82;4.95;;;3.10;85.90;;;;;;6304646;22;20004;-95
2022/01/25 21:48:31;;;;;;;12.20;5.20;;;;;;;;;;6305477;22;20445;-96
2022/01/25 21:54:06;;;;;;;16.08;5.82;;;;;;;;;;6295323;22;20110;-95
2022/01/25 21:56:33;;;;;;;11.02;5.18;;;;;;;;;;6308601;22;20005;-95
2022/01/25 21:58:59;;;;;;;15.93;6.75;;;;;;;;;;6279971;22;20007;-96
2022/01/25 22:01:26;;;;;;;11.70;6.10;;;;;;;;;;6307033;22;19995;-94
2022/01/25 22:04:05;;;;;;;12.00;5.70;;;;;;;;;;6307379;22;20078;-94
2022/01/25 22:06:36;;;;;;;9.55;4.93;;;;;;;;;;6308765;22;20026;-95
2022/01/25 22:09:08;;;;;;;14.15;5.85;;;;;;;;;;6311322;22;20057;-95
2022/01/25 22:11:58;;;;;;;7.90;4.43;;;;;;;;;;6309151;22;20392;-95
2022/01/25 22:14:34;;;;;;;14.65;4.97;;;;;;;;;;6314158;22;20010;-94
2022/01/25 22:17:00;;;;;;;9.55;5.72;;;;;;;;;;6310696;22;20065;-96
2022/01/25 22:19:26;;;;;;;10.15;5.68;;;;;;;;;;6312703;22;20072;-95
2022/01/25 22:24:54;;;;;;;;;;;2.90;89.00;;;;;;6301560;22;20035;-94
2022/01/25 22:44:14;;;;;;;11.63;4.75;;;;;;;;;;6293383;22;20023;-95
2022/01/25 22:47:01;;;;;;;9.98;5.10;;;;;;;;;;6308895;22;20007;-95
2022/01/25 22:52:00;;;;;;;10.60;3.90;;;;;;;;;;6309087;22;20004;-93
2022/01/25 22:54:26;;;;;;;6.53;4.63;;;;;;;;;;6281315;22;20014;-94
2022/01/25 22:56:52;;;;;;;8.05;3.80;;;;;;;;;;6308433;22;20007;-94
2022/01/25 22:59:18;;;;;;;14.05;4.78;;;;;;;;;;6279874;22;20015;-95
2022/01/25 23:01:50;;;;;;;8.82;4.90;;;;;;;;;;6281205;22;20003;-95
2022/01/25 23:09:47;;;;;;;14.63;5.35;;;;;;;;;;6290057;22;20050;-94
2022/01/25 23:17:43;;;;;;;13.55;5.35;;;;;;;;;;6286684;22;20027;-94
2022/01/25 23:20:18;;;;;;;12.10;5.45;;;;;;;;;;6307338;22;20019;-94
2022/01/25 23:22:52;;;;;;;15.25;5.82;;;2.50;89.10;;;;;;6308794;22;20068;-94
2022/01/25 23:31:07;;;;;;;18.27;4.45;;;;;;;;;;6267264;22;19911;-95
2022/01/25 23:36:29;;;;;;;17.10;7.63;;;;;;;;;;6298323;22;20117;-96
2022/01/25 23:39:05;;;;;;;22.30;8.98;;;;;;;;;;6308268;22;20007;-96
2022/01/25 23:47:09;;;;;;;26.65;11.93;;;;;;;;;;6304655;22;20023;-96
